Time;durP1;ratioP1;P1;durP2;ratioP2;P2;SDS_P1;SDS_P2;PMS_P1;PMS_P2;Temp;Humidity;BMP_temperature;BMP_pressure;BME280_temperature;BME280_humidity;BME280_pressure;Samples;Min_cycle;Max_cycle;Signal;HPM_P1;HPM_P2
2022/03/01 00:02:23;;;;;;;26.90;14.75;;;-2.70;99.90;;;;;;5115231;28;20024;-71
2022/03/01 00:04:49;;;;;;;26.08;14.88;;;-2.70;99.80;;;;;;5113855;28;20385;-71
2022/03/01 00:07:14;;;;;;;24.63;11.82;;;-2.70;99.90;;;;;;5114965;28;20436;-72
2022/03/01 00:09:40;;;;;;;26.35;13.02;;;-2.80;99.90;;;;;;5114998;28;20031;-73
2022/03/01 00:12:06;;;;;;;25.92;12.93;;;-2.80;99.90;;;;;;5114718;28;20431;-71
2022/03/01 00:14:32;;;;;;;25.02;13.05;;;-2.80;99.90;;;;;;5115049;28;20373;-70
2022/03/01 00:16:58;;;;;;;21.35;11.55;;;-2.80;99.90;;;;;;5113789;28;20027;-72
2022/03/01 00:19:23;;;;;;;23.20;12.98;;;-2.90;99.90;;;;;;5114898;28;20028;-71
2022/03/01 00:21:49;;;;;;;22.85;12.85;;;-2.80;99.90;;;;;;5114436;28;20022;-73
2022/03/01 00:24:15;;;;;;;23.45;13.85;;;-2.80;99.90;;;;;;5113509;28;20027;-71
2022/03/01 00:26:40;;;;;;;28.88;14.05;;;-2.80;99.90;;;;;;5114767;28;20019;-72
2022/03/01 00:29:06;;;;;;;35.58;15.93;;;-2.80;99.90;;;;;;5114630;28;20068;-71
2022/03/01 00:31:32;;;;;;;33.75;14.00;;;-2.80;99.90;;;;;;5114562;28;20385;-71
2022/03/01 00:33:57;;;;;;;28.80;15.00;;;-2.80;99.90;;;;;;5114650;28;20426;-70
2022/03/01 00:36:23;;;;;;;25.13;13.18;;;-2.80;99.90;;;;;;5114334;28;20028;-72
2022/03/01 00:38:48;;;;;;;28.23;13.45;;;-2.80;99.90;;;;;;5114524;28;20030;-70
2022/03/01 00:41:14;;;;;;;24.88;13.43;;;-2.90;99.90;;;;;;5114464;28;20027;-70
2022/03/01 00:43:40;;;;;;;29.38;13.90;;;-2.90;99.90;;;;;;5114503;28;20385;-70
2022/03/01 00:46:05;;;;;;;26.25;13.63;;;-2.90;99.90;;;;;;5114330;27;20499;-73
2022/03/01 00:48:31;;;;;;;24.63;11.80;;;-3.00;99.90;;;;;;5113026;28;20020;-70
2022/03/01 00:50:56;;;;;;;27.95;13.05;;;-3.00;99.90;;;;;;5114336;28;20894;-71
2022/03/01 00:53:22;;;;;;;25.63;12.63;;;-3.00;99.90;;;;;;5114359;28;20473;-72
2022/03/01 00:55:48;;;;;;;25.17;12.10;;;-3.00;99.90;;;;;;5114365;28;20024;-73
2022/03/01 00:58:14;;;;;;;24.50;12.18;;;-3.00;99.80;;;;;;5114086;28;20031;-70
2022/03/01 01:00:40;;;;;;;26.02;13.45;;;-3.10;99.60;;;;;;5114240;28;20047;-73
2022/03/01 01:03:05;;;;;;;26.60;11.88;;;-3.10;99.30;;;;;;5112820;28;20054;-71
2022/03/01 01:05:31;;;;;;;28.45;13.98;;;-3.10;99.40;;;;;;5114030;28;20154;-72
2022/03/01 01:07:57;;;;;;;17.23;10.25;;;-3.20;99.30;;;;;;5114116;28;20023;-73
2022/03/01 01:10:23;;;;;;;23.20;11.95;;;-3.20;99.90;;;;;;5114055;28;20039;-70
2022/03/01 01:12:49;;;;;;;22.90;12.13;;;-3.20;99.70;;;;;;5113887;28;20066;-71
2022/03/01 01:15:17;;;;;;;20.70;12.70;;;-3.30;99.70;;;;;;5113885;28;20060;-71
2022/03/01 01:17:43;;;;;;;18.52;10.40;;;-3.30;99.90;;;;;;5112651;28;20565;-72
2022/03/01 01:20:09;;;;;;;23.95;12.35;;;-3.30;99.90;;;;;;5113844;28;20035;-71
2022/03/01 01:22:41;;;;;;;21.25;11.65;;;-3.30;99.90;;;;;;5113848;28;20034;-71
2022/03/01 01:25:13;;;;;;;20.90;11.32;;;-3.30;99.90;;;;;;5112670;28;20030;-73
2022/03/01 01:27:41;;;;;;;22.27;11.40;;;-3.40;99.90;;;;;;5112549;28;20137;-72
2022/03/01 01:30:09;;;;;;;17.27;11.95;;;-3.40;99.90;;;;;;5113539;28;20030;-73
2022/03/01 01:32:35;;;;;;;22.67;11.75;;;-3.30;99.90;;;;;;5113147;28;20038;-71
2022/03/01 01:35:02;;;;;;;23.10;11.07;;;-3.30;99.90;;;;;;5118067;28;20024;-73
2022/03/01 01:37:27;;;;;;;20.02;11.52;;;-3.30;99.90;;;;;;5116562;28;20024;-71
2022/03/01 01:39:53;;;;;;;21.13;11.43;;;-3.30;99.90;;;;;;5116820;28;20407;-72
2022/03/01 01:42:18;;;;;;;17.33;10.00;;;-3.30;99.90;;;;;;5116589;28;20484;-71
2022/03/01 01:44:44;;;;;;;23.85;10.02;;;-3.30;99.90;;;;;;5117887;28;20493;-73
2022/03/01 01:47:11;;;;;;;20.58;10.27;;;-3.30;99.90;;;;;;5117831;28;20106;-71
2022/03/01 01:49:36;;;;;;;18.88;10.15;;;-3.30;99.50;;;;;;5116425;28;20044;-71
2022/03/01 01:52:02;;;;;;;19.75;10.15;;;-3.30;99.50;;;;;;5117689;28;20039;-71
2022/03/01 01:54:28;;;;;;;20.48;10.60;;;-3.40;99.30;;;;;;5117829;28;20061;-73
2022/03/01 01:56:54;;;;;;;17.00;9.98;;;-3.30;99.10;;;;;;5117553;28;20024;-71
2022/03/01 01:59:20;;;;;;;25.00;10.00;;;-3.30;98.90;;;;;;5117573;28;20073;-71
2022/03/01 02:01:46;;;;;;;14.57;8.93;;;-3.30;98.70;;;;;;5117580;28;20020;-72
2022/03/01 02:04:12;;;;;;;17.15;9.82;;;-3.40;98.50;;;;;;5117409;28;20494;-70
2022/03/01 02:06:48;;;;;;;22.08;10.15;;;-3.30;98.80;;;;;;5116207;28;20101;-71
2022/03/01 02:09:14;;;;;;;19.83;10.30;;;-3.30;99.30;;;;;;5117431;28;20019;-72
2022/03/01 02:11:39;;;;;;;18.38;10.63;;;-3.30;99.50;;;;;;5117211;27;20034;-73
2022/03/01 02:14:05;;;;;;;18.50;10.73;;;-3.30;99.60;;;;;;5117254;28;20051;-70
2022/03/01 02:16:30;;;;;;;18.75;9.68;;;-3.30;99.50;;;;;;5117407;28;20380;-72
2022/03/01 02:18:56;;;;;;;21.63;10.55;;;-3.20;99.70;;;;;;5117396;27;20381;-70
2022/03/01 02:21:22;;;;;;;18.65;10.48;;;-3.20;99.00;;;;;;5117275;28;20074;-73
2022/03/01 02:23:47;;;;;;;18.80;10.27;;;-3.20;98.80;;;;;;5115898;28;20024;-71
2022/03/01 02:26:13;;;;;;;23.88;11.18;;;-3.20;98.50;;;;;;5115716;28;20022;-71
2022/03/01 02:28:38;;;;;;;17.27;9.60;;;-3.20;98.20;;;;;;5117006;28;20107;-73
2022/03/01 02:31:04;;;;;;;23.25;12.00;;;-3.10;98.40;;;;;;5116916;28;20023;-72
2022/03/01 02:33:29;;;;;;;22.10;10.32;;;-3.20;97.80;;;;;;5116939;28;20061;-72
2022/03/01 02:35:55;;;;;;;19.52;9.77;;;-3.20;97.80;;;;;;5117006;28;20020;-72
2022/03/01 02:38:21;;;;;;;21.13;11.38;;;-3.20;97.50;;;;;;5116879;28;20028;-70
2022/03/01 02:40:46;;;;;;;23.02;11.48;;;-3.20;97.50;;;;;;5116884;28;20024;-72
2022/03/01 02:43:12;;;;;;;21.40;11.25;;;-3.20;97.20;;;;;;5116364;28;20124;-71
2022/03/01 02:45:37;;;;;;;27.05;11.40;;;-3.20;97.20;;;;;;5116786;27;20098;-71
2022/03/01 02:48:03;;;;;;;22.98;12.02;;;-3.30;97.20;;;;;;5115442;28;20053;-71
2022/03/01 02:50:29;;;;;;;23.80;12.57;;;-3.30;97.60;;;;;;5116816;28;20409;-73
2022/03/01 02:52:54;;;;;;;24.08;11.10;;;-3.30;97.60;;;;;;5116595;28;20035;-73
2022/03/01 02:55:20;;;;;;;22.95;11.88;;;-3.40;98.40;;;;;;5115383;28;20026;-70
2022/03/01 02:57:45;;;;;;;30.23;13.20;;;-3.40;98.20;;;;;;5116398;28;20024;-73
2022/03/01 03:00:12;;;;;;;24.50;11.48;;;-3.40;98.60;;;;;;5116508;28;20384;-73
2022/03/01 03:02:37;;;;;;;21.70;12.13;;;-3.50;98.80;;;;;;5115118;28;20024;-72
2022/03/01 03:05:04;;;;;;;21.50;12.13;;;-3.50;98.60;;;;;;5116322;28;20027;-72
2022/03/01 03:07:30;;;;;;;23.13;12.15;;;-3.50;98.60;;;;;;5114994;28;20027;-71
2022/03/01 03:09:55;;;;;;;24.55;12.85;;;-3.60;98.00;;;;;;5116246;28;20020;-72
2022/03/01 03:12:21;;;;;;;21.42;12.30;;;-3.70;98.20;;;;;;5114723;28;20043;-72
2022/03/01 03:14:47;;;;;;;21.42;10.18;;;-3.80;98.50;;;;;;5114846;28;20114;-72
2022/03/01 03:17:12;;;;;;;25.00;13.05;;;-3.90;99.80;;;;;;5116021;28;20024;-72
2022/03/01 03:19:38;;;;;;;29.00;12.85;;;-3.90;99.90;;;;;;5116182;28;20280;-69
2022/03/01 03:22:05;;;;;;;26.60;14.20;;;-4.00;99.90;;;;;;5114669;27;20115;-71
2022/03/01 03:24:31;;;;;;;20.00;12.65;;;-4.10;99.90;;;;;;5116114;28;20457;-70
2022/03/01 03:26:56;;;;;;;26.23;13.23;;;-4.10;99.90;;;;;;5115951;28;20023;-69
2022/03/01 03:29:22;;;;;;;24.75;12.30;;;-4.20;99.90;;;;;;5115872;28;20020;-71
2022/03/01 03:31:47;;;;;;;65.10;30.02;;;-4.30;99.90;;;;;;5115647;28;20031;-69
2022/03/01 03:34:13;;;;;;;44.75;19.17;;;-4.30;99.90;;;;;;5115839;28;20028;-68
2022/03/01 03:36:41;;;;;;;27.95;13.88;;;-4.40;99.90;;;;;;5115830;28;20019;-69
2022/03/01 03:39:08;;;;;;;23.80;13.20;;;-4.50;99.90;;;;;;5115720;28;20392;-70
2022/03/01 03:41:35;;;;;;;21.25;13.50;;;-4.50;99.90;;;;;;5115449;28;20019;-68
2022/03/01 03:44:00;;;;;;;25.75;14.15;;;-4.50;99.90;;;;;;5115530;28;20028;-70
2022/03/01 03:46:27;;;;;;;24.75;12.40;;;-4.60;99.90;;;;;;5115490;28;20051;-70
2022/03/01 03:48:52;;;;;;;26.75;15.07;;;-4.60;99.90;;;;;;5115345;28;20089;-71
2022/03/01 03:51:19;;;;;;;120.63;49.47;;;-4.70;99.90;;;;;;5114182;28;20040;-69
2022/03/01 03:53:45;;;;;;;69.55;29.90;;;-4.70;99.90;;;;;;5114095;28;20024;-68
2022/03/01 03:56:11;;;;;;;39.85;18.70;;;-4.80;99.90;;;;;;5114437;27;20418;-69
2022/03/01 03:58:36;;;;;;;35.40;16.67;;;-4.90;99.90;;;;;;5115493;28;20024;-68
2022/03/01 04:01:03;;;;;;;35.03;15.15;;;-5.00;99.90;;;;;;5114070;28;20042;-69
2022/03/01 04:03:29;;;;;;;59.63;20.37;;;-5.00;99.90;;;;;;5115016;28;20020;-68
2022/03/01 04:05:54;;;;;;;63.27;20.67;;;-5.10;99.90;;;;;;5115210;28;20016;-69
2022/03/01 04:08:20;;;;;;;38.97;17.38;;;-5.10;99.90;;;;;;5115113;28;20016;-69
2022/03/01 04:10:45;;;;;;;41.27;18.57;;;-5.20;99.90;;;;;;5115142;28;20023;-70
2022/03/01 04:13:11;;;;;;;52.90;21.00;;;-5.20;99.90;;;;;;5114797;28;20039;-69
2022/03/01 04:15:38;;;;;;;36.80;18.63;;;-5.30;99.90;;;;;;5114853;28;20023;-68
2022/03/01 04:18:04;;;;;;;30.97;18.00;;;-5.30;99.90;;;;;;5114919;28;20062;-71
2022/03/01 04:20:30;;;;;;;42.17;19.77;;;-5.40;99.90;;;;;;5114955;28;20024;-70
2022/03/01 04:22:56;;;;;;;35.23;19.53;;;-5.40;99.90;;;;;;5113464;27;20038;-69
2022/03/01 04:25:22;;;;;;;39.13;19.67;;;-5.50;99.90;;;;;;5114752;28;20016;-69
2022/03/01 04:27:47;;;;;;;38.53;19.03;;;-5.50;99.90;;;;;;5114543;28;20358;-68
2022/03/01 04:30:13;;;;;;;39.50;18.83;;;-5.50;99.90;;;;;;5113398;28;20016;-70
2022/03/01 04:32:40;;;;;;;41.37;18.83;;;-5.50;99.90;;;;;;5113284;28;20484;-69
2022/03/01 04:35:08;;;;;;;38.90;18.87;;;-5.60;99.90;;;;;;5114680;28;20020;-68
2022/03/01 04:37:38;;;;;;;39.40;18.53;;;-5.60;99.90;;;;;;5114529;27;20023;-69
2022/03/01 04:40:08;;;;;;;34.47;18.30;;;-5.70;99.90;;;;;;5113559;28;20031;-68
2022/03/01 04:42:34;;;;;;;72.53;32.13;;;-5.70;99.90;;;;;;5114527;28;20012;-68
2022/03/01 04:45:00;;;;;;;47.13;20.90;;;-5.80;99.90;;;;;;5114621;28;20027;-69
2022/03/01 04:47:26;;;;;;;37.07;18.43;;;-5.80;99.90;;;;;;5114671;28;20100;-68
2022/03/01 04:49:52;;;;;;;41.10;19.57;;;-5.90;99.90;;;;;;5112992;28;20063;-68
2022/03/01 04:52:18;;;;;;;32.73;17.90;;;-5.90;99.90;;;;;;5112086;28;20031;-70
2022/03/01 04:54:45;;;;;;;46.77;20.73;;;-5.90;99.90;;;;;;5111917;28;20043;-70
2022/03/01 04:57:11;;;;;;;36.50;17.93;;;-6.00;99.90;;;;;;5114079;28;20028;-71
2022/03/01 04:59:37;;;;;;;35.70;17.87;;;-6.00;99.90;;;;;;5114146;27;20024;-69
2022/03/01 05:02:03;;;;;;;37.40;17.53;;;-6.10;99.90;;;;;;5114126;28;20051;-71
2022/03/01 05:04:28;;;;;;;35.23;19.17;;;-6.10;99.90;;;;;;5112788;28;20022;-69
2022/03/01 05:06:54;;;;;;;39.67;17.67;;;-6.10;99.90;;;;;;5113977;28;20020;-70
2022/03/01 05:09:21;;;;;;;38.07;18.73;;;-6.20;99.90;;;;;;5112726;28;20019;-70
2022/03/01 05:11:48;;;;;;;39.17;19.00;;;-6.20;99.90;;;;;;5113906;28;20036;-69
2022/03/01 05:14:14;;;;;;;33.00;18.83;;;-6.20;99.90;;;;;;5114069;28;20031;-70
2022/03/01 05:16:40;;;;;;;34.60;18.53;;;-6.30;99.90;;;;;;5112687;28;20059;-71
2022/03/01 05:19:06;;;;;;;34.73;15.03;;;-6.40;99.90;;;;;;5113924;28;20482;-70
2022/03/01 05:21:32;;;;;;;37.70;16.63;;;-6.40;99.90;;;;;;5112487;28;20055;-72
2022/03/01 05:23:58;;;;;;;39.37;16.97;;;-6.50;99.90;;;;;;5113741;28;20058;-70
2022/03/01 05:26:24;;;;;;;37.50;17.60;;;-6.50;99.90;;;;;;5112317;28;20088;-71
2022/03/01 05:28:49;;;;;;;32.60;17.10;;;-6.50;99.90;;;;;;5113856;28;20035;-70
2022/03/01 05:31:15;;;;;;;45.67;16.13;;;-6.50;99.90;;;;;;5113700;28;20028;-71
2022/03/01 05:33:41;;;;;;;39.33;17.73;;;-6.50;99.90;;;;;;5113753;28;20389;-72
2022/03/01 05:36:06;;;;;;;35.30;16.87;;;-6.50;99.90;;;;;;5112506;28;20034;-70
2022/03/01 05:38:32;;;;;;;33.10;16.20;;;-6.50;99.90;;;;;;5112373;28;20030;-71
2022/03/01 05:40:57;;;;;;;35.73;17.57;;;-6.50;99.90;;;;;;5113829;28;20028;-71
2022/03/01 05:43:23;;;;;;;30.20;16.60;;;-6.50;99.90;;;;;;5113560;28;20049;-70
2022/03/01 05:45:49;;;;;;;35.67;17.67;;;-6.50;99.90;;;;;;5113709;28;20035;-72
2022/03/01 05:48:14;;;;;;;36.10;16.50;;;-6.40;99.90;;;;;;5113382;28;20053;-72
2022/03/01 05:50:40;;;;;;;41.47;18.00;;;-6.50;99.90;;;;;;5113497;28;20047;-70
2022/03/01 05:53:05;;;;;;;33.37;18.73;;;-6.50;99.90;;;;;;5113500;28;20047;-70
2022/03/01 05:55:31;;;;;;;38.13;16.80;;;-6.50;99.90;;;;;;5113618;28;20099;-71
2022/03/01 05:57:57;;;;;;;39.23;19.03;;;-6.60;99.90;;;;;;5112259;28;20629;-70
2022/03/01 06:00:23;;;;;;;54.37;22.63;;;-6.60;99.90;;;;;;5113221;28;20043;-72
2022/03/01 06:02:50;;;;;;;68.37;27.57;;;-6.60;99.90;;;;;;5113421;28;20031;-71
2022/03/01 06:05:16;;;;;;;72.33;26.73;;;-6.60;99.90;;;;;;5113374;28;20486;-70
2022/03/01 06:07:42;;;;;;;57.70;22.10;;;-6.60;99.90;;;;;;5113372;28;20488;-72
2022/03/01 06:10:09;;;;;;;47.70;21.37;;;-6.50;99.90;;;;;;5113328;28;20020;-71
2022/03/01 06:12:35;;;;;;;48.20;21.13;;;-6.50;99.90;;;;;;5113254;27;20027;-72
2022/03/01 06:15:00;;;;;;;46.07;21.13;;;-6.40;99.90;;;;;;5113389;28;20030;-70
2022/03/01 06:17:26;;;;;;;51.60;24.67;;;-6.40;99.90;;;;;;5113237;28;20063;-71
2022/03/01 06:19:52;;;;;;;96.43;35.00;;;-6.30;99.90;;;;;;5116501;28;20026;-71
2022/03/01 06:22:18;;;;;;;130.33;48.77;;;-6.20;99.90;;;;;;5117117;28;20031;-71
2022/03/01 06:24:44;;;;;;;126.40;47.03;;;-6.20;99.90;;;;;;5109192;27;20107;-68
2022/03/01 06:27:10;;;;;;;73.77;31.53;;;-6.10;99.90;;;;;;5095689;28;20438;-68
2022/03/01 06:29:36;;;;;;;81.10;32.70;;;-6.00;99.90;;;;;;5095865;27;20071;-68
2022/03/01 06:32:03;;;;;;;82.67;32.67;;;-5.80;99.90;;;;;;5095409;28;20032;-68
2022/03/01 06:34:28;;;;;;;81.73;35.33;;;-5.70;99.90;;;;;;5095401;27;20604;-71
2022/03/01 06:36:55;;;;;;;62.43;28.27;;;-5.60;99.90;;;;;;5095351;28;20047;-70
2022/03/01 06:39:20;;;;;;;59.87;27.37;;;-5.40;99.90;;;;;;5094608;27;20024;-71
2022/03/01 06:41:46;;;;;;;55.92;28.15;;;-5.20;99.90;;;;;;5114564;27;20023;-68
2022/03/01 06:44:11;;;;;;;60.83;29.33;;;-5.00;99.90;;;;;;5116373;28;20030;-70
2022/03/01 06:46:37;;;;;;;62.63;31.40;;;-4.80;99.90;;;;;;5116416;28;20098;-69
2022/03/01 06:49:03;;;;;;;57.72;28.90;;;-4.60;99.90;;;;;;5114149;28;20057;-69
2022/03/01 06:51:29;;;;;;;151.98;56.63;;;-4.40;99.90;;;;;;5116201;28;20035;-68
2022/03/01 06:53:54;;;;;;;193.30;68.03;;;-4.10;99.90;;;;;;5115294;28;20024;-69
2022/03/01 06:56:20;;;;;;;173.32;61.85;;;-3.90;99.90;;;;;;5116407;28;20027;-70
2022/03/01 06:58:45;;;;;;;147.20;52.30;;;-3.70;99.90;;;;;;5116563;28;20022;-69
2022/03/01 07:01:11;;;;;;;133.65;46.58;;;-3.50;99.90;;;;;;5115588;28;20052;-70
2022/03/01 07:03:39;;;;;;;134.98;50.00;;;-3.30;99.90;;;;;;5113037;28;20501;-69
2022/03/01 07:06:04;;;;;;;131.82;50.10;;;-3.10;99.90;;;;;;5112625;28;20404;-71
2022/03/01 07:08:30;;;;;;;129.77;45.28;;;-2.90;99.90;;;;;;5114745;28;20025;-69
2022/03/01 07:10:56;;;;;;;99.47;36.35;;;-2.70;99.90;;;;;;5115313;28;20028;-72
2022/03/01 07:13:22;;;;;;;74.07;30.58;;;-2.40;99.90;;;;;;5113762;28;20415;-70
2022/03/01 07:15:47;;;;;;;23.02;10.88;;;-2.20;99.90;;;;;;5115100;28;20023;-72
2022/03/01 07:18:13;;;;;;;25.00;12.20;;;-1.90;99.90;;;;;;5115738;28;20020;-71
2022/03/01 07:20:38;;;;;;;21.17;10.25;;;-1.70;97.90;;;;;;5115030;28;20047;-70
2022/03/01 07:23:05;;;;;;;21.35;11.18;;;-1.50;91.00;;;;;;5116068;28;20157;-72
2022/03/01 07:25:30;;;;;;;18.92;9.57;;;-1.20;88.30;;;;;;5116092;28;20064;-71
2022/03/01 07:27:56;;;;;;;16.35;10.00;;;-1.10;83.10;;;;;;5114843;28;20024;-70
2022/03/01 07:30:25;;;;;;;24.67;10.90;;;-0.90;83.00;;;;;;5114712;28;20362;-71
2022/03/01 07:32:52;;;;;;;25.23;11.65;;;-0.80;79.00;;;;;;5115744;28;20031;-71
2022/03/01 07:35:21;;;;;;;23.60;12.73;;;-0.70;78.50;;;;;;5116007;28;20018;-72
2022/03/01 07:37:47;;;;;;;18.60;9.63;;;-0.50;78.60;;;;;;5115768;28;20030;-71
2022/03/01 07:40:14;;;;;;;19.75;9.00;;;-0.40;76.80;;;;;;5115797;27;20015;-72
2022/03/01 07:42:40;;;;;;;12.52;7.45;;;-0.30;74.70;;;;;;5114528;28;20023;-72
2022/03/01 07:45:07;;;;;;;9.40;6.75;;;-0.20;74.00;;;;;;5114419;28;20029;-72
2022/03/01 07:47:33;;;;;;;14.07;7.05;;;-0.10;72.70;;;;;;5115789;28;20036;-71
2022/03/01 07:49:58;;;;;;;12.48;7.53;;;0.00;71.50;;;;;;5115476;28;20402;-70
2022/03/01 07:52:24;;;;;;;14.88;8.35;;;0.10;71.50;;;;;;5115525;28;20085;-71
2022/03/01 07:54:50;;;;;;;15.48;7.03;;;0.10;71.20;;;;;;5115605;28;20055;-72
2022/03/01 07:57:16;;;;;;;18.52;8.35;;;0.20;70.90;;;;;;5115412;28;20023;-72
2022/03/01 07:59:42;;;;;;;16.90;7.65;;;0.30;71.40;;;;;;5115434;28;20096;-73
2022/03/01 08:02:08;;;;;;;16.00;8.05;;;0.30;70.50;;;;;;5115363;28;20407;-73
2022/03/01 08:04:33;;;;;;;13.25;7.00;;;0.40;70.20;;;;;;5115240;28;20023;-72
2022/03/01 08:06:59;;;;;;;12.63;6.45;;;0.40;69.40;;;;;;5114043;28;20404;-72
2022/03/01 08:09:24;;;;;;;10.68;6.28;;;0.50;68.20;;;;;;5115220;28;20047;-71
2022/03/01 08:11:50;;;;;;;9.48;5.97;;;0.60;67.60;;;;;;5115137;28;20032;-71
2022/03/01 08:14:16;;;;;;;9.25;5.93;;;0.50;66.00;;;;;;5115068;28;20028;-71
2022/03/01 08:16:41;;;;;;;9.65;5.30;;;0.50;66.70;;;;;;5115063;28;20384;-72
2022/03/01 08:19:07;;;;;;;6.82;5.22;;;0.60;65.70;;;;;;5115014;28;20020;-71
2022/03/01 08:21:32;;;;;;;11.85;5.85;;;0.60;65.30;;;;;;5115046;28;20027;-72
2022/03/01 08:23:58;;;;;;;8.95;4.65;;;0.60;65.50;;;;;;5114964;28;20115;-71
2022/03/01 08:26:24;;;;;;;8.65;5.00;;;0.70;65.50;;;;;;5114969;28;20028;-71
2022/03/01 08:28:49;;;;;;;7.43;4.32;;;0.70;64.80;;;;;;5114748;28;20039;-73
2022/03/01 08:31:16;;;;;;;7.43;5.47;;;0.70;64.20;;;;;;5114824;28;20024;-74
2022/03/01 08:33:41;;;;;;;8.85;5.40;;;0.80;63.70;;;;;;5114788;28;20027;-71
2022/03/01 08:36:08;;;;;;;9.15;5.10;;;0.90;64.10;;;;;;5114862;28;20027;-73
2022/03/01 08:38:34;;;;;;;10.23;5.72;;;1.00;64.80;;;;;;5114748;28;20024;-72
2022/03/01 08:41:00;;;;;;;7.57;4.72;;;1.00;64.30;;;;;;5114388;28;20522;-73
2022/03/01 08:43:25;;;;;;;12.60;5.65;;;1.00;64.80;;;;;;5114461;28;20094;-71
2022/03/01 08:45:51;;;;;;;9.10;5.25;;;1.10;64.10;;;;;;5113240;28;20157;-72
2022/03/01 08:48:17;;;;;;;10.88;5.63;;;1.10;63.30;;;;;;5114542;28;20026;-71
2022/03/01 08:50:42;;;;;;;11.02;5.93;;;1.30;63.50;;;;;;5114257;28;20501;-72
2022/03/01 08:53:09;;;;;;;8.52;5.43;;;1.30;63.10;;;;;;5114275;28;20047;-71
2022/03/01 08:55:35;;;;;;;6.53;4.82;;;1.30;62.80;;;;;;5113145;28;20019;-74
2022/03/01 08:58:01;;;;;;;9.32;5.80;;;1.30;62.00;;;;;;5114374;28;20016;-73
2022/03/01 09:00:27;;;;;;;13.43;6.70;;;1.30;62.10;;;;;;5114215;28;20402;-73
2022/03/01 09:02:53;;;;;;;23.40;8.90;;;1.40;61.80;;;;;;5112723;28;20031;-74
2022/03/01 09:05:19;;;;;;;13.63;6.18;;;1.40;61.70;;;;;;5114137;27;20069;-73
2022/03/01 09:07:44;;;;;;;11.10;6.00;;;1.50;61.10;;;;;;5114047;28;20020;-74
2022/03/01 09:10:10;;;;;;;11.70;6.97;;;1.50;61.70;;;;;;5114331;28;20026;-73
2022/03/01 09:12:36;;;;;;;9.82;5.95;;;1.50;61.50;;;;;;5112836;28;20028;-71
2022/03/01 09:15:03;;;;;;;11.82;6.13;;;1.50;59.80;;;;;;5114062;28;20381;-72
2022/03/01 09:17:29;;;;;;;12.45;7.03;;;1.60;60.10;;;;;;5112758;28;20062;-72
2022/03/01 09:19:54;;;;;;;13.43;7.32;;;1.70;60.50;;;;;;5114071;28;20484;-72
2022/03/01 09:22:20;;;;;;;13.13;7.07;;;1.80;60.40;;;;;;5112693;28;20047;-72
2022/03/01 09:24:45;;;;;;;11.85;7.47;;;1.70;59.40;;;;;;5112659;28;20114;-70
2022/03/01 09:27:11;;;;;;;12.18;6.88;;;1.60;58.10;;;;;;5113929;28;20020;-69
2022/03/01 09:29:37;;;;;;;14.50;7.07;;;1.70;57.50;;;;;;5113850;28;20020;-69
2022/03/01 09:32:03;;;;;;;8.40;6.07;;;1.70;57.10;;;;;;5113848;28;20027;-71
2022/03/01 09:34:29;;;;;;;11.20;6.90;;;1.70;56.70;;;;;;5113852;28;20033;-70
2022/03/01 09:36:55;;;;;;;9.65;5.80;;;1.80;56.90;;;;;;5113786;28;20035;-71
2022/03/01 09:39:21;;;;;;;10.35;5.85;;;1.70;56.10;;;;;;5113960;28;20027;-71
2022/03/01 09:41:48;;;;;;;13.27;5.00;;;1.60;54.90;;;;;;5113882;28;20059;-71
2022/03/01 09:44:15;;;;;;;8.32;5.50;;;1.80;54.40;;;;;;5113804;28;20426;-71
2022/03/01 09:46:42;;;;;;;10.70;6.10;;;2.00;53.50;;;;;;5113868;28;20028;-69
2022/03/01 09:49:08;;;;;;;13.40;6.63;;;2.00;53.60;;;;;;5112340;28;20048;-70
2022/03/01 09:51:36;;;;;;;11.70;6.30;;;2.00;53.20;;;;;;5113721;28;20488;-71
2022/03/01 09:54:03;;;;;;;8.73;5.32;;;2.00;51.50;;;;;;5115326;28;20038;-69
2022/03/01 09:56:28;;;;;;;11.00;5.40;;;2.10;51.60;;;;;;5117712;28;20030;-72
2022/03/01 09:58:55;;;;;;;18.02;7.95;;;1.80;49.80;;;;;;5117819;28;20027;-69
2022/03/01 10:01:21;;;;;;;8.60;5.15;;;1.90;51.60;;;;;;5116571;28;20020;-72
2022/03/01 10:03:48;;;;;;;8.35;5.15;;;1.90;49.20;;;;;;5116404;28;20028;-69
2022/03/01 10:06:15;;;;;;;4.65;3.80;;;1.90;49.30;;;;;;5117743;28;20077;-69
2022/03/01 10:08:41;;;;;;;5.10;3.78;;;2.00;48.40;;;;;;5117629;27;20104;-71
2022/03/01 10:11:08;;;;;;;7.10;4.28;;;2.00;47.70;;;;;;5117381;27;20016;-71
2022/03/01 10:13:40;;;;;;;10.82;5.32;;;2.00;49.30;;;;;;5117528;28;20024;-69
2022/03/01 10:16:07;;;;;;;8.90;4.43;;;2.00;51.10;;;;;;5117514;28;20016;-71
2022/03/01 10:18:38;;;;;;;10.70;5.30;;;2.10;50.90;;;;;;5117465;28;20027;-69
2022/03/01 10:21:09;;;;;;;9.30;4.88;;;2.10;51.80;;;;;;5117316;28;20031;-69
2022/03/01 10:23:37;;;;;;;8.95;5.53;;;2.20;50.30;;;;;;5117238;28;20515;-69
2022/03/01 10:26:22;;;;;;;10.73;5.78;;;2.10;51.20;;;;;;5116889;28;20020;-69
2022/03/01 10:28:49;;;;;;;9.60;5.72;;;2.20;51.20;;;;;;5115585;28;20469;-69
2022/03/01 10:31:18;;;;;;;9.63;5.45;;;2.20;49.70;;;;;;5116791;28;20073;-69
2022/03/01 10:33:56;;;;;;;7.15;5.65;;;2.10;50.80;;;;;;5116882;28;20015;-69
2022/03/01 10:36:27;;;;;;;7.78;5.28;;;2.20;50.20;;;;;;5115600;28;20493;-71
2022/03/01 10:39:14;;;;;;;10.75;5.65;;;2.30;51.00;;;;;;5109758;28;20583;-69
2022/03/01 10:41:50;;;;;;;14.63;6.93;;;2.40;51.90;;;;;;5106597;28;20044;-69
2022/03/01 10:44:21;;;;;;;12.32;7.07;;;2.30;49.20;;;;;;5105615;28;20509;-71
2022/03/01 10:47:17;;;;;;;14.73;7.68;;;2.20;49.70;;;;;;5098597;28;20103;-70
2022/03/01 10:49:43;;;;;;;15.02;8.45;;;2.40;50.80;;;;;;5094998;28;20113;-69
2022/03/01 10:52:09;;;;;;;14.93;7.78;;;2.40;51.40;;;;;;5094519;28;20044;-72
2022/03/01 10:54:37;;;;;;;15.80;8.23;;;2.40;50.60;;;;;;5112864;28;20028;-72
2022/03/01 10:57:05;;;;;;;13.98;8.23;;;2.50;51.00;;;;;;5116006;28;20026;-72
2022/03/01 10:59:33;;;;;;;13.95;8.52;;;2.40;50.20;;;;;;5112214;28;20032;-69
2022/03/01 11:01:59;;;;;;;14.70;8.77;;;2.50;50.30;;;;;;5116416;28;20019;-69
2022/03/01 11:04:26;;;;;;;14.75;7.78;;;2.40;49.40;;;;;;5114985;28;20028;-69
2022/03/01 11:06:54;;;;;;;14.73;8.95;;;2.50;50.50;;;;;;5115833;27;20072;-72
2022/03/01 11:09:25;;;;;;;16.05;8.55;;;2.50;50.90;;;;;;5116434;28;20107;-69
2022/03/01 11:11:51;;;;;;;14.57;8.80;;;2.50;52.10;;;;;;5116267;28;20469;-71
2022/03/01 11:14:23;;;;;;;12.63;8.20;;;2.50;52.20;;;;;;5114028;28;20019;-69
2022/03/01 11:17:12;;;;;;;16.42;6.63;;;2.50;50.60;;;;;;5115094;27;20412;-69
2022/03/01 11:19:41;;;;;;;13.25;7.28;;;2.50;48.80;;;;;;5114883;28;20028;-69
2022/03/01 11:22:26;;;;;;;12.80;8.18;;;2.50;48.50;;;;;;5114933;28;20111;-69
2022/03/01 11:24:52;;;;;;;10.30;7.57;;;2.60;49.80;;;;;;5115042;28;20024;-69
2022/03/01 11:27:19;;;;;;;12.20;6.03;;;2.60;48.80;;;;;;5115191;28;20019;-70
2022/03/01 11:29:45;;;;;;;12.35;7.10;;;2.60;47.80;;;;;;5113689;28;20020;-69
2022/03/01 11:32:16;;;;;;;7.50;5.30;;;2.60;48.60;;;;;;5114685;28;20032;-69
2022/03/01 11:34:43;;;;;;;14.23;6.18;;;2.60;48.80;;;;;;5114891;27;20384;-69
2022/03/01 11:37:18;;;;;;;9.02;5.38;;;2.60;48.30;;;;;;5115034;28;20023;-69
2022/03/01 11:39:56;;;;;;;10.23;5.90;;;2.70;49.30;;;;;;5112392;28;20478;-72
2022/03/01 11:42:22;;;;;;;9.88;5.20;;;2.70;49.60;;;;;;5109791;28;20047;-73
2022/03/01 11:44:51;;;;;;;8.10;5.38;;;2.70;49.40;;;;;;5115054;28;20027;-72
2022/03/01 11:47:31;;;;;;;10.95;6.32;;;2.60;47.80;;;;;;5114191;28;20018;-69
2022/03/01 11:49:57;;;;;;;8.35;4.18;;;2.60;47.50;;;;;;5115167;28;20055;-72
2022/03/01 11:52:25;;;;;;;9.63;5.40;;;2.60;46.50;;;;;;5102382;28;20392;-72
2022/03/01 11:54:54;;;;;;;12.85;5.63;;;2.60;45.10;;;;;;5100728;28;20023;-72
2022/03/01 11:57:27;;;;;;;9.25;5.25;;;2.70;44.40;;;;;;5107085;28;20379;-69
2022/03/01 11:59:57;;;;;;;11.40;5.60;;;2.70;44.20;;;;;;5104144;28;20027;-69
2022/03/01 12:02:27;;;;;;;9.05;5.93;;;2.70;44.00;;;;;;5105326;28;20020;-69
2022/03/01 12:04:58;;;;;;;7.75;4.70;;;2.80;44.70;;;;;;5115295;28;20027;-69
2022/03/01 12:07:30;;;;;;;8.73;4.60;;;2.80;43.40;;;;;;5115340;28;20481;-71
2022/03/01 12:10:01;;;;;;;9.70;5.35;;;2.70;41.90;;;;;;5115154;28;20098;-69
2022/03/01 12:12:33;;;;;;;6.45;4.10;;;2.70;43.00;;;;;;5115038;28;20027;-71
2022/03/01 12:14:59;;;;;;;9.05;5.13;;;2.80;43.60;;;;;;5115235;28;20015;-72
2022/03/01 12:17:24;;;;;;;6.47;4.28;;;2.80;45.40;;;;;;5114367;28;20500;-68
2022/03/01 12:20:00;;;;;;;8.50;4.82;;;2.90;46.50;;;;;;5115125;28;20148;-72
2022/03/01 12:22:25;;;;;;;7.20;4.40;;;3.00;43.70;;;;;;5113789;28;20027;-68
2022/03/01 12:24:51;;;;;;;9.20;4.78;;;3.00;40.10;;;;;;5114764;28;20011;-70
2022/03/01 12:27:18;;;;;;;7.78;5.15;;;3.00;40.90;;;;;;5113562;28;20028;-69
2022/03/01 12:29:46;;;;;;;9.80;5.20;;;3.10;41.70;;;;;;5111591;28;20030;-69
2022/03/01 12:32:13;;;;;;;8.15;4.05;;;3.10;41.60;;;;;;5113280;28;20123;-69
2022/03/01 12:34:40;;;;;;;6.82;4.18;;;3.00;40.20;;;;;;5113636;28;20031;-70